createdAt,value
2022-08-26T00:01:18.003Z,22.10
2022-08-26T00:03:54.433Z,22.00
2022-08-26T00:06:24.456Z,22.00
2022-08-26T00:08:54.591Z,21.90
2022-08-26T00:11:26.957Z,21.80
2022-08-26T00:13:57.580Z,21.70
2022-08-26T00:16:32.018Z,21.80
2022-08-26T00:19:02.203Z,21.80
2022-08-26T00:21:32.044Z,21.90
2022-08-26T00:24:01.893Z,21.80
2022-08-26T00:26:33.936Z,21.90
2022-08-26T00:29:04.175Z,21.80
2022-08-26T00:31:37.632Z,21.80
2022-08-26T00:34:09.398Z,21.80
2022-08-26T00:36:40.670Z,21.80
2022-08-26T00:39:11.432Z,21.70
2022-08-26T00:41:42.815Z,21.40
2022-08-26T00:44:13.712Z,21.30
2022-08-26T00:46:49.466Z,21.20
2022-08-26T00:49:24.526Z,21.20
2022-08-26T00:51:56.798Z,21.10
2022-08-26T00:54:30.121Z,21.00
2022-08-26T00:57:03.940Z,21.00
2022-08-26T00:59:35.568Z,21.10
2022-08-26T01:02:20.068Z,21.10
2022-08-26T01:04:55.604Z,21.20
2022-08-26T01:07:30.154Z,21.20
2022-08-26T01:10:02.385Z,21.30
2022-08-26T01:12:38.820Z,21.30
2022-08-26T01:15:12.338Z,21.30
2022-08-26T01:17:44.871Z,21.30
2022-08-26T01:20:26.570Z,21.30
2022-08-26T01:23:01.628Z,21.30
2022-08-26T01:25:36.071Z,21.30
2022-08-26T01:28:09.284Z,21.30
2022-08-26T01:30:42.441Z,21.30
2022-08-26T01:33:18.198Z,21.20
2022-08-26T01:35:48.894Z,21.20
2022-08-26T01:38:21.570Z,21.10
2022-08-26T01:40:54.526Z,21.10
2022-08-26T01:43:28.396Z,21.10
2022-08-26T01:45:58.673Z,21.10
2022-08-26T01:48:32.695Z,21.10
2022-08-26T01:51:03.718Z,21.10
2022-08-26T01:53:41.790Z,21.00
2022-08-26T01:56:17.256Z,21.00
2022-08-26T01:58:50.577Z,20.90
2022-08-26T02:01:22.083Z,20.90
2022-08-26T02:04:07.999Z,20.90
2022-08-26T02:06:39.173Z,20.90
2022-08-26T02:09:12.440Z,20.90
2022-08-26T02:11:42.233Z,20.80
2022-08-26T02:14:15.938Z,20.80
2022-08-26T02:16:50.281Z,20.90
2022-08-26T02:19:23.497Z,20.90
2022-08-26T02:21:55.481Z,20.80
2022-08-26T02:24:31.062Z,20.80
2022-08-26T02:27:01.491Z,20.70
2022-08-26T02:29:35.581Z,20.50
2022-08-26T02:32:06.240Z,20.30
2022-08-26T02:34:36.578Z,20.20
2022-08-26T02:37:11.555Z,19.90
2022-08-26T02:39:45.939Z,19.90
2022-08-26T02:42:17.933Z,20.00
2022-08-26T02:44:47.790Z,20.00
2022-08-26T02:47:18.397Z,20.00
2022-08-26T02:49:48.777Z,19.90
2022-08-26T02:52:18.788Z,20.00
2022-08-26T02:54:51.188Z,20.10
2022-08-26T02:57:22.208Z,20.20
2022-08-26T02:59:52.465Z,20.30
2022-08-26T03:02:22.400Z,20.30
2022-08-26T03:04:58.091Z,20.30
2022-08-26T03:07:33.565Z,20.30
2022-08-26T03:10:08.949Z,20.30
2022-08-26T03:12:39.057Z,20.20
2022-08-26T03:15:16.626Z,20.20
2022-08-26T03:17:48.383Z,20.00
2022-08-26T03:20:18.472Z,19.90
2022-08-26T03:22:51.415Z,19.90
2022-08-26T03:25:25.194Z,19.80
2022-08-26T03:27:55.438Z,19.80
2022-08-26T03:30:37.899Z,19.80
2022-08-26T03:33:08.571Z,19.70
2022-08-26T03:35:39.738Z,19.80
2022-08-26T03:38:10.084Z,19.70
2022-08-26T03:40:43.447Z,19.70
2022-08-26T03:43:14.208Z,19.70
2022-08-26T03:45:44.308Z,19.80
2022-08-26T03:48:16.155Z,20.00
2022-08-26T03:50:46.028Z,20.00
2022-08-26T03:53:20.533Z,20.10
2022-08-26T03:55:53.093Z,20.10
2022-08-26T03:58:24.210Z,19.90
2022-08-26T04:00:55.585Z,20.00
2022-08-26T04:03:38.315Z,20.00
2022-08-26T04:06:09.132Z,19.90
2022-08-26T04:08:39.523Z,19.80
2022-08-26T04:11:18.324Z,19.70
2022-08-26T04:13:49.005Z,19.70
2022-08-26T04:16:20.412Z,19.70
2022-08-26T04:18:50.579Z,19.60
2022-08-26T04:21:20.401Z,19.70
2022-08-26T04:23:50.458Z,19.70
2022-08-26T04:26:24.354Z,19.70
2022-08-26T04:28:57.949Z,19.70
2022-08-26T04:31:30.982Z,19.60
2022-08-26T04:34:02.197Z,19.70
2022-08-26T04:36:32.630Z,19.70
2022-08-26T04:39:04.802Z,19.70
2022-08-26T04:41:37.275Z,19.60
2022-08-26T04:44:08.482Z,19.60
2022-08-26T04:46:43.677Z,19.60
2022-08-26T04:49:13.991Z,19.80
2022-08-26T04:51:43.889Z,19.90
2022-08-26T04:54:14.179Z,20.10
2022-08-26T04:56:50.754Z,20.30
2022-08-26T04:59:20.644Z,20.60
2022-08-26T05:01:56.276Z,20.90
2022-08-26T05:04:26.278Z,21.00
2022-08-26T05:07:02.659Z,21.40
2022-08-26T05:09:32.957Z,21.60
2022-08-26T05:12:05.616Z,21.80
2022-08-26T05:14:35.857Z,22.40
2022-08-26T05:17:05.655Z,22.60
2022-08-26T05:19:37.100Z,23.00
2022-08-26T05:22:13.098Z,23.10
2022-08-26T05:24:43.308Z,23.30
2022-08-26T05:27:16.586Z,23.50
2022-08-26T05:29:48.218Z,23.70
2022-08-26T05:32:24.449Z,23.90
2022-08-26T05:34:57.118Z,23.90
2022-08-26T05:37:28.470Z,24.50
2022-08-26T05:39:58.287Z,23.80
2022-08-26T05:42:31.252Z,22.60
2022-08-26T05:45:01.045Z,21.70
2022-08-26T05:47:31.001Z,21.50
2022-08-26T05:50:05.177Z,21.50
2022-08-26T05:52:34.903Z,21.50
2022-08-26T05:55:04.782Z,21.10
2022-08-26T05:57:40.472Z,21.30
2022-08-26T06:00:15.406Z,21.40
2022-08-26T06:02:45.261Z,21.60
2022-08-26T06:05:19.068Z,21.70
2022-08-26T06:08:01.403Z,21.80
2022-08-26T06:10:33.398Z,21.70
2022-08-26T06:13:11.607Z,21.40
2022-08-26T06:15:46.102Z,21.50
2022-08-26T06:18:17.679Z,21.80
2022-08-26T06:20:54.571Z,21.90
2022-08-26T06:23:42.469Z,22.20
2022-08-26T06:26:13.774Z,22.10
2022-08-26T06:28:46.779Z,21.80
2022-08-26T06:31:17.258Z,21.70
2022-08-26T06:33:47.897Z,21.80
2022-08-26T06:36:22.117Z,22.00
2022-08-26T06:38:54.500Z,22.30
2022-08-26T06:41:25.815Z,22.30
2022-08-26T06:44:00.423Z,22.20
2022-08-26T06:46:30.627Z,22.30
2022-08-26T06:49:00.853Z,22.40
2022-08-26T06:51:32.203Z,22.30
2022-08-26T06:54:06.003Z,22.30
2022-08-26T06:56:39.401Z,22.60
2022-08-26T06:59:13.761Z,22.60
2022-08-26T07:01:47.075Z,22.80
2022-08-26T07:04:22.365Z,22.70
2022-08-26T07:06:54.896Z,22.60
2022-08-26T07:09:28.129Z,22.80
2022-08-26T07:11:58.838Z,22.70
2022-08-26T07:14:31.741Z,22.70
2022-08-26T07:17:01.903Z,22.90
2022-08-26T07:19:31.983Z,23.00
2022-08-26T07:22:03.634Z,23.20
2022-08-26T07:24:35.099Z,23.10
2022-08-26T07:27:08.604Z,23.00
2022-08-26T07:29:43.417Z,23.10
2022-08-26T07:32:15.886Z,23.30
2022-08-26T07:34:46.545Z,23.50
2022-08-26T07:37:17.517Z,23.40
2022-08-26T07:39:47.816Z,23.50
2022-08-26T07:42:20.780Z,23.10
2022-08-26T07:44:53.185Z,23.50
2022-08-26T07:47:25.494Z,23.50
2022-08-26T07:49:57.704Z,24.00
2022-08-26T07:52:30.019Z,24.20
2022-08-26T07:55:02.089Z,24.20
2022-08-26T07:57:32.895Z,24.20
2022-08-26T08:00:10.080Z,24.00
2022-08-26T08:02:39.921Z,24.00
2022-08-26T08:05:11.529Z,24.00
2022-08-26T08:07:44.795Z,24.20
2022-08-26T08:10:17.137Z,24.30
2022-08-26T08:12:47.374Z,24.40
2022-08-26T08:15:22.977Z,24.40
2022-08-26T08:17:54.769Z,24.50
2022-08-26T08:20:28.603Z,24.60
2022-08-26T08:22:58.936Z,24.50
2022-08-26T08:25:29.525Z,24.50
2022-08-26T08:27:59.501Z,24.60
2022-08-26T08:30:32.707Z,24.70
2022-08-26T08:33:04.946Z,24.60
2022-08-26T08:35:35.501Z,24.60
2022-08-26T08:38:05.581Z,24.70
2022-08-26T08:40:37.648Z,24.70
2022-08-26T08:43:14.297Z,24.80
2022-08-26T08:45:51.924Z,25.10
2022-08-26T08:48:27.818Z,24.70
2022-08-26T08:51:03.166Z,24.80
2022-08-26T08:53:37.023Z,25.00
2022-08-26T08:56:14.821Z,25.30
2022-08-26T08:58:57.265Z,25.40
2022-08-26T09:01:39.461Z,25.40
2022-08-26T09:04:32.246Z,25.80
2022-08-26T09:07:05.047Z,25.90
2022-08-26T09:09:38.791Z,26.10
2022-08-26T09:12:14.247Z,26.00
2022-08-26T09:14:45.766Z,26.30
2022-08-26T09:17:26.371Z,26.00
2022-08-26T09:20:02.240Z,25.90
2022-08-26T09:22:33.502Z,26.10
2022-08-26T09:25:04.646Z,26.50
2022-08-26T09:27:46.918Z,26.60
2022-08-26T09:30:27.032Z,26.80
2022-08-26T09:33:10.421Z,27.10
2022-08-26T09:35:43.851Z,26.60
2022-08-26T09:38:26.915Z,27.00
2022-08-26T09:41:00.190Z,26.80
2022-08-26T09:43:31.211Z,27.40
2022-08-26T09:46:15.004Z,27.50
2022-08-26T09:48:48.171Z,27.70
2022-08-26T09:51:33.483Z,27.60
2022-08-26T09:54:08.239Z,27.70
2022-08-26T09:56:40.133Z,28.00
2022-08-26T09:59:13.172Z,27.70
2022-08-26T10:01:45.677Z,27.50
2022-08-26T10:04:24.320Z,27.80
2022-08-26T10:07:00.275Z,27.80
2022-08-26T10:09:31.334Z,28.50
2022-08-26T10:12:06.562Z,28.40
2022-08-26T10:14:39.816Z,28.30
2022-08-26T10:17:14.067Z,28.30
2022-08-26T10:19:57.181Z,28.80
2022-08-26T10:22:32.981Z,29.00
2022-08-26T10:25:06.152Z,29.00
2022-08-26T10:27:48.439Z,28.70
2022-08-26T10:30:25.775Z,28.80
2022-08-26T10:33:00.779Z,29.20
2022-08-26T10:35:35.055Z,29.10
2022-08-26T10:38:11.279Z,28.90
2022-08-26T10:40:55.123Z,28.70
2022-08-26T10:43:28.735Z,29.10
2022-08-26T10:46:05.869Z,29.10
2022-08-26T10:48:43.872Z,29.10
2022-08-26T10:51:18.657Z,29.10
2022-08-26T10:53:55.929Z,29.80
2022-08-26T10:56:41.256Z,29.50
2022-08-26T10:59:20.860Z,29.50
2022-08-26T11:01:57.449Z,29.80
2022-08-26T11:04:47.551Z,29.50
2022-08-26T11:07:51.506Z,29.50
2022-08-26T11:11:00.673Z,30.10
2022-08-26T11:14:00.660Z,30.40
2022-08-26T11:16:44.565Z,30.40
2022-08-26T11:19:59.622Z,30.30
2022-08-26T11:22:31.217Z,30.00
2022-08-26T11:25:13.192Z,29.50
2022-08-26T11:28:07.361Z,29.30
2022-08-26T11:30:56.932Z,29.70
2022-08-26T11:34:00.705Z,30.00
2022-08-26T11:36:46.249Z,30.10
2022-08-26T11:39:21.638Z,30.40
2022-08-26T11:41:55.469Z,30.00
2022-08-26T11:44:30.052Z,30.00
2022-08-26T11:47:03.122Z,29.90
2022-08-26T11:49:35.601Z,30.00
2022-08-26T11:52:14.899Z,29.90
2022-08-26T11:55:02.980Z,30.30
2022-08-26T11:57:35.477Z,30.40
2022-08-26T12:00:12.520Z,30.70
2022-08-26T12:02:44.956Z,30.30
2022-08-26T12:05:24.503Z,30.10
2022-08-26T12:07:57.367Z,30.00
2022-08-26T12:10:30.480Z,30.40
2022-08-26T12:13:02.766Z,30.10
2022-08-26T12:15:34.870Z,29.70
2022-08-26T12:18:20.670Z,29.50
2022-08-26T12:21:03.178Z,29.80
2022-08-26T12:23:43.848Z,29.90
2022-08-26T12:26:22.630Z,29.40
2022-08-26T12:28:57.483Z,29.50
2022-08-26T12:31:34.093Z,30.10
2022-08-26T12:34:06.741Z,30.10
2022-08-26T12:36:54.763Z,30.40
2022-08-26T12:39:30.267Z,30.10
2022-08-26T12:42:01.606Z,30.00
2022-08-26T12:44:36.576Z,29.70
2022-08-26T12:47:08.749Z,29.80
2022-08-26T12:49:39.795Z,29.70
2022-08-26T12:52:30.097Z,29.20
2022-08-26T12:55:02.862Z,29.50
2022-08-26T12:57:36.108Z,29.60
2022-08-26T13:00:35.019Z,30.10
2022-08-26T13:03:05.382Z,30.00
2022-08-26T13:05:37.938Z,30.20
2022-08-26T13:08:29.134Z,29.90
2022-08-26T13:11:06.711Z,29.90
2022-08-26T13:13:36.566Z,29.70
2022-08-26T13:16:09.384Z,29.30
2022-08-26T13:18:39.256Z,29.10
2022-08-26T13:21:15.936Z,28.90
2022-08-26T13:23:48.444Z,28.80
2022-08-26T13:26:18.458Z,28.90
2022-08-26T13:28:50.043Z,28.80
2022-08-26T13:31:34.514Z,28.70
2022-08-26T13:34:05.077Z,28.70
2022-08-26T13:36:34.907Z,29.00
2022-08-26T13:39:08.264Z,28.80
2022-08-26T13:41:38.102Z,28.60
2022-08-26T13:44:08.554Z,28.90
2022-08-26T13:46:39.054Z,28.60
2022-08-26T13:49:09.694Z,28.80
2022-08-26T13:51:40.324Z,28.80
2022-08-26T13:54:12.743Z,29.00
2022-08-26T13:56:42.963Z,29.00
2022-08-26T13:59:12.934Z,28.70
2022-08-26T14:01:42.782Z,28.50
2022-08-26T14:04:12.722Z,28.70
2022-08-26T14:06:42.552Z,28.80
2022-08-26T14:09:15.030Z,28.70
2022-08-26T14:11:54.082Z,28.70
2022-08-26T14:14:25.208Z,28.80
2022-08-26T14:16:56.114Z,28.80
2022-08-26T14:19:31.307Z,28.70
2022-08-26T14:22:03.404Z,28.90
2022-08-26T14:24:35.773Z,29.10
2022-08-26T14:27:05.550Z,29.40
2022-08-26T14:29:35.399Z,29.60
2022-08-26T14:32:11.530Z,29.60
2022-08-26T14:34:42.744Z,29.70
2022-08-26T14:37:15.400Z,29.80
2022-08-26T14:39:48.862Z,29.90
2022-08-26T14:42:22.394Z,29.80
2022-08-26T14:44:57.619Z,29.60
2022-08-26T14:47:27.597Z,29.40
2022-08-26T14:49:57.466Z,29.50
2022-08-26T14:52:27.682Z,29.50
2022-08-26T14:54:57.519Z,29.20
2022-08-26T14:57:27.397Z,29.00
2022-08-26T14:59:57.342Z,29.10
2022-08-26T15:02:33.513Z,29.00
2022-08-26T15:05:04.076Z,29.10
2022-08-26T15:07:34.062Z,29.00
2022-08-26T15:10:07.716Z,28.70
2022-08-26T15:12:37.555Z,28.80
2022-08-26T15:15:08.980Z,28.70
2022-08-26T15:17:41.854Z,28.70
2022-08-26T15:20:12.967Z,28.60
2022-08-26T15:22:44.497Z,28.50
2022-08-26T15:25:17.922Z,28.70
2022-08-26T15:27:48.031Z,28.50
2022-08-26T15:30:18.416Z,28.60
2022-08-26T15:32:48.221Z,28.60
2022-08-26T15:35:18.196Z,28.50
2022-08-26T15:37:48.039Z,28.60
2022-08-26T15:40:21.941Z,28.60
2022-08-26T15:43:01.107Z,28.50
2022-08-26T15:45:36.313Z,28.60
2022-08-26T15:48:06.900Z,28.40
2022-08-26T15:50:36.757Z,28.30
2022-08-26T15:53:07.746Z,28.40
2022-08-26T15:55:40.209Z,28.40
2022-08-26T15:58:10.382Z,28.00
2022-08-26T16:00:40.794Z,27.50
2022-08-26T16:03:11.395Z,27.20
2022-08-26T16:05:43.589Z,26.40
2022-08-26T16:08:14.397Z,25.90
2022-08-26T16:10:50.606Z,25.50
2022-08-26T16:13:21.710Z,25.00
2022-08-26T16:15:52.506Z,24.60
2022-08-26T16:18:23.608Z,24.20
2022-08-26T16:21:13.140Z,24.20
2022-08-26T16:23:45.277Z,24.40
2022-08-26T16:26:20.556Z,24.40
2022-08-26T16:28:51.170Z,23.80
2022-08-26T16:31:21.573Z,24.00
2022-08-26T16:33:51.685Z,23.50
2022-08-26T16:36:21.840Z,23.60
2022-08-26T16:38:56.466Z,23.40
2022-08-26T16:41:30.904Z,23.10
2022-08-26T16:44:01.435Z,22.80
2022-08-26T16:46:32.029Z,23.00
2022-08-26T16:49:04.126Z,22.70
2022-08-26T16:51:38.254Z,21.90
2022-08-26T16:54:09.637Z,21.50
2022-08-26T16:56:42.112Z,21.30
2022-08-26T16:59:13.572Z,21.00
2022-08-26T17:01:43.432Z,20.80
2022-08-26T17:04:13.279Z,20.70
2022-08-26T17:06:43.093Z,20.20
2022-08-26T17:09:12.902Z,20.20
2022-08-26T17:11:45.671Z,20.20
2022-08-26T17:14:15.886Z,20.20
2022-08-26T17:16:51.117Z,20.20
2022-08-26T17:19:21.223Z,20.20
2022-08-26T17:21:51.733Z,20.20
2022-08-26T17:24:21.864Z,20.10
2022-08-26T17:26:55.821Z,20.10
2022-08-26T17:29:25.753Z,20.10
2022-08-26T17:31:55.680Z,20.10
2022-08-26T17:34:26.138Z,20.40
2022-08-26T17:36:55.946Z,20.30
2022-08-26T17:39:25.873Z,20.20
2022-08-26T17:41:58.362Z,20.10
2022-08-26T17:44:28.161Z,19.90
2022-08-26T17:46:58.075Z,19.80
2022-08-26T17:49:27.956Z,19.70
2022-08-26T17:52:00.254Z,19.70
2022-08-26T17:54:30.319Z,19.80
2022-08-26T17:57:04.881Z,19.60
2022-08-26T17:59:40.928Z,19.60
2022-08-26T18:02:11.001Z,19.50
2022-08-26T18:04:40.806Z,19.30
2022-08-26T18:07:10.567Z,19.20
2022-08-26T18:09:40.360Z,19.10
2022-08-26T18:12:14.539Z,19.10
2022-08-26T18:14:44.377Z,19.10
2022-08-26T18:17:19.352Z,19.20
2022-08-26T18:19:49.361Z,19.10
2022-08-26T18:22:20.539Z,19.10
2022-08-26T18:24:58.853Z,19.10
2022-08-26T18:27:31.790Z,19.00
2022-08-26T18:30:01.673Z,19.00
2022-08-26T18:32:31.549Z,18.90
2022-08-26T18:35:01.374Z,18.80
2022-08-26T18:37:31.729Z,18.80
2022-08-26T18:40:02.098Z,19.00
2022-08-26T18:42:36.651Z,19.00
2022-08-26T18:45:08.104Z,19.00
2022-08-26T18:47:38.563Z,19.10
2022-08-26T18:50:10.914Z,19.20
2022-08-26T18:52:40.880Z,19.20
2022-08-26T18:55:11.317Z,19.20
2022-08-26T18:57:43.670Z,19.30
2022-08-26T19:00:14.725Z,19.40
2022-08-26T19:02:47.055Z,19.60
2022-08-26T19:05:21.996Z,19.50
2022-08-26T19:07:51.844Z,19.50
2022-08-26T19:10:21.773Z,19.60
2022-08-26T19:12:56.335Z,19.50
2022-08-26T19:15:28.613Z,19.40
2022-08-26T19:17:58.440Z,19.50
2022-08-26T19:20:28.277Z,19.50
2022-08-26T19:23:02.607Z,19.50
2022-08-26T19:25:43.594Z,19.50
2022-08-26T19:28:16.713Z,19.40
2022-08-26T19:30:51.314Z,19.50
2022-08-26T19:33:23.866Z,19.50
2022-08-26T19:35:53.966Z,19.60
2022-08-26T19:38:24.112Z,19.60
2022-08-26T19:40:54.065Z,19.60
2022-08-26T19:43:26.541Z,19.40
2022-08-26T19:45:56.499Z,19.40
2022-08-26T19:48:26.582Z,19.40
2022-08-26T19:50:56.365Z,19.40
2022-08-26T19:53:26.459Z,19.50
2022-08-26T19:55:56.289Z,19.30
2022-08-26T19:58:28.710Z,19.50
2022-08-26T20:00:58.562Z,19.50
2022-08-26T20:03:28.566Z,19.50
2022-08-26T20:05:58.378Z,19.50
2022-08-26T20:08:28.658Z,19.40
2022-08-26T20:11:04.841Z,19.40
2022-08-26T20:13:38.127Z,19.30
2022-08-26T20:16:10.288Z,19.10
2022-08-26T20:18:52.870Z,19.20
2022-08-26T20:21:29.363Z,19.30
2022-08-26T20:24:02.081Z,19.20
2022-08-26T20:26:36.202Z,19.30
2022-08-26T20:29:10.756Z,19.30
2022-08-26T20:31:40.852Z,19.30
2022-08-26T20:34:11.102Z,19.40
2022-08-26T20:36:42.978Z,19.30
2022-08-26T20:39:13.424Z,19.40
2022-08-26T20:41:43.926Z,19.40
2022-08-26T20:44:17.616Z,19.40
2022-08-26T20:46:47.854Z,19.20
2022-08-26T20:49:18.382Z,19.40
2022-08-26T20:51:51.387Z,19.40
2022-08-26T20:54:27.525Z,19.40
2022-08-26T20:56:59.439Z,19.40
2022-08-26T20:59:32.005Z,19.40
2022-08-26T21:02:01.798Z,19.40
2022-08-26T21:04:31.821Z,19.30
2022-08-26T21:07:01.656Z,19.20
2022-08-26T21:09:31.720Z,19.30
2022-08-26T21:12:01.786Z,19.30
2022-08-26T21:14:34.207Z,19.30
2022-08-26T21:17:04.054Z,19.30
2022-08-26T21:19:34.057Z,19.40
2022-08-26T21:22:04.023Z,19.40
2022-08-26T21:24:33.859Z,19.40
2022-08-26T21:27:03.663Z,19.30
2022-08-26T21:29:36.109Z,19.40
2022-08-26T21:32:06.740Z,19.40
2022-08-26T21:34:36.910Z,19.40
2022-08-26T21:37:13.248Z,19.40
2022-08-26T21:39:46.147Z,19.40
2022-08-26T21:42:16.108Z,19.30
2022-08-26T21:44:52.830Z,19.30
2022-08-26T21:47:23.134Z,19.30
2022-08-26T21:49:53.257Z,19.30
2022-08-26T21:52:23.961Z,19.30
2022-08-26T21:54:54.018Z,19.30
2022-08-26T21:57:23.908Z,19.30
2022-08-26T21:59:56.439Z,19.40
2022-08-26T22:02:27.025Z,19.50
2022-08-26T22:04:57.097Z,19.40
2022-08-26T22:07:26.993Z,19.30
2022-08-26T22:09:56.851Z,19.30
2022-08-26T22:12:26.724Z,19.30
2022-08-26T22:14:59.311Z,19.20
2022-08-26T22:17:29.785Z,19.20
2022-08-26T22:19:59.616Z,19.20
2022-08-26T22:22:30.200Z,19.20
2022-08-26T22:25:00.174Z,19.30
2022-08-26T22:27:30.095Z,19.30
2022-08-26T22:30:02.555Z,19.30
2022-08-26T22:32:32.410Z,19.20
2022-08-26T22:35:02.512Z,19.30
2022-08-26T22:37:52.335Z,19.20
2022-08-26T22:40:25.203Z,19.30
2022-08-26T22:42:56.908Z,19.30
2022-08-26T22:45:34.362Z,19.20
2022-08-26T22:48:06.512Z,19.30
2022-08-26T22:50:36.560Z,19.30
2022-08-26T22:53:06.820Z,19.30
2022-08-26T22:55:36.807Z,19.30
2022-08-26T22:58:07.989Z,19.30
2022-08-26T23:00:41.096Z,19.30
2022-08-26T23:03:11.722Z,19.30
2022-08-26T23:05:42.808Z,19.30
2022-08-26T23:08:13.729Z,19.30
2022-08-26T23:10:44.473Z,19.30
2022-08-26T23:13:14.687Z,19.40
2022-08-26T23:15:47.800Z,19.30
2022-08-26T23:18:18.776Z,19.20
2022-08-26T23:20:48.599Z,19.20
2022-08-26T23:23:18.447Z,19.30
2022-08-26T23:25:48.272Z,19.30
2022-08-26T23:28:18.541Z,19.20
2022-08-26T23:30:51.326Z,19.20
2022-08-26T23:33:21.138Z,19.10
2022-08-26T23:35:48.528Z,19.10
2022-08-26T23:38:19.668Z,19.10
2022-08-26T23:40:49.824Z,19.00
2022-08-26T23:43:19.630Z,19.10
2022-08-26T23:45:52.025Z,19.00
2022-08-26T23:48:21.876Z,18.90
2022-08-26T23:51:04.273Z,19.00
2022-08-26T23:53:34.099Z,18.90
2022-08-26T23:56:03.902Z,18.90
2022-08-26T23:58:33.799Z,18.90
